Time;durP1;ratioP1;P1;durP2;ratioP2;P2;SDS_P1;SDS_P2;PMS_P1;PMS_P2;Temp;Humidity;BMP_temperature;BMP_pressure;BME280_temperature;BME280_humidity;BME280_pressure;Samples;Min_cycle;Max_cycle;Signal;HPM_P1;HPM_P2
2021/07/29 00:06:45;;;;;;;2.70;1.42;;;23.00;62.10;;;;;;21066480;28;20032;-19
2021/07/29 00:16:50;;;;;;;3.08;1.50;;;23.00;62.00;;;;;;21066400;28;20032;-19
2021/07/29 00:26:51;;;;;;;4.65;2.05;;;23.00;61.90;;;;;;21063362;28;20400;-19
2021/07/29 00:36:51;;;;;;;2.40;1.40;;;23.00;61.80;;;;;;21065123;28;20077;-19
2021/07/29 00:46:52;;;;;;;5.22;1.80;;;23.00;61.80;;;;;;21063679;28;20064;-19
2021/07/29 00:56:52;;;;;;;3.85;1.65;;;23.00;61.70;;;;;;21063578;28;20035;-19
2021/07/29 01:06:54;;;;;;;3.65;1.70;;;22.90;61.40;;;;;;21076540;28;20104;-19
2021/07/29 01:16:55;;;;;;;4.88;1.80;;;23.00;61.30;;;;;;21093721;22;20048;-20
2021/07/29 01:26:56;;;;;;;3.90;1.95;;;23.00;61.40;;;;;;21078795;28;20614;-21
2021/07/29 01:36:56;;;;;;;4.88;1.55;;;23.00;61.40;;;;;;21077260;28;20036;-19
2021/07/29 01:46:57;;;;;;;4.25;1.70;;;23.00;61.90;;;;;;21077362;28;20467;-20
2021/07/29 01:56:57;;;;;;;3.47;1.85;;;23.00;61.10;;;;;;21076674;28;20036;-20
2021/07/29 02:06:58;;;;;;;5.55;2.22;;;23.00;61.30;;;;;;21076281;28;20031;-19
2021/07/29 02:16:58;;;;;;;4.03;1.77;;;22.90;61.20;;;;;;21074631;28;20032;-19
2021/07/29 02:26:59;;;;;;;3.22;1.70;;;22.90;61.30;;;;;;21073712;28;20034;-20
2021/07/29 02:36:59;;;;;;;3.08;1.52;;;22.90;61.20;;;;;;21073534;28;20529;-20
2021/07/29 02:47:00;;;;;;;2.42;1.73;;;22.90;61.00;;;;;;21073120;28;20090;-20
2021/07/29 02:57:01;;;;;;;2.65;1.48;;;22.90;61.50;;;;;;21072489;28;20036;-19
2021/07/29 03:07:01;;;;;;;3.20;1.83;;;22.90;61.60;;;;;;21071929;28;20456;-21
2021/07/29 03:17:02;;;;;;;3.97;2.00;;;22.90;61.50;;;;;;21072183;28;20028;-20
2021/07/29 03:27:03;;;;;;;3.37;1.50;;;22.90;61.40;;;;;;21070770;28;20483;-20
2021/07/29 03:37:03;;;;;;;2.45;1.52;;;22.80;61.50;;;;;;21065824;28;20534;-20
2021/07/29 03:47:04;;;;;;;3.15;1.88;;;22.90;61.60;;;;;;21065107;28;20039;-20
2021/07/29 03:57:05;;;;;;;4.20;1.93;;;22.80;61.30;;;;;;21064769;28;20044;-20
2021/07/29 04:07:07;;;;;;;3.33;1.42;;;22.80;61.10;;;;;;21064068;28;20638;-20
2021/07/29 04:17:07;;;;;;;2.60;1.60;;;22.80;61.50;;;;;;21066179;28;20101;-20
2021/07/29 04:27:08;;;;;;;3.40;2.23;;;22.70;60.80;;;;;;21067079;28;20032;-20
2021/07/29 04:37:08;;;;;;;2.80;1.85;;;22.70;60.60;;;;;;21069179;28;20126;-20
2021/07/29 04:47:11;;;;;;;2.92;1.83;;;22.70;60.40;;;;;;21082641;28;20020;-20
2021/07/29 04:57:11;;;;;;;3.13;2.08;;;22.70;60.30;;;;;;21081120;28;20032;-20
2021/07/29 05:07:12;;;;;;;5.30;2.35;;;22.70;59.40;;;;;;21080759;28;20085;-20
2021/07/29 05:17:13;;;;;;;3.10;1.90;;;22.50;59.00;;;;;;21079452;28;20040;-19
2021/07/29 05:27:13;;;;;;;4.13;1.90;;;22.40;58.90;;;;;;21079470;28;20043;-19
2021/07/29 05:37:14;;;;;;;4.70;1.88;;;22.40;58.90;;;;;;21081610;28;20035;-19
2021/07/29 05:47:14;;;;;;;7.43;1.58;;;22.40;59.30;;;;;;21081900;28;20028;-21
2021/07/29 05:57:15;;;;;;;31.30;9.65;;;22.30;58.70;;;;;;21086124;28;20057;-20
2021/07/29 06:07:15;;;;;;;14.20;4.75;;;22.30;58.80;;;;;;21082585;28;20028;-21
2021/07/29 06:17:16;;;;;;;9.07;3.40;;;22.30;59.10;;;;;;21074482;28;20031;-21
2021/07/29 06:27:17;;;;;;;10.57;2.97;;;22.30;59.00;;;;;;21074359;28;20039;-20
2021/07/29 06:37:17;;;;;;;4.80;1.67;;;22.30;57.60;;;;;;21073939;28;20027;-20
2021/07/29 06:47:19;;;;;;;4.85;2.25;;;22.40;57.00;;;;;;21073090;28;20028;-20
2021/07/29 06:57:19;;;;;;;7.68;1.50;;;22.30;57.00;;;;;;21072363;28;20089;-20
2021/07/29 07:07:20;;;;;;;7.25;2.30;;;22.20;56.60;;;;;;21071021;28;20511;-20
2021/07/29 07:17:20;;;;;;;5.07;1.42;;;22.30;56.50;;;;;;21073711;28;20064;-20
2021/07/29 07:27:21;;;;;;;8.68;2.00;;;22.20;56.40;;;;;;21070241;28;20109;-20
2021/07/29 07:37:22;;;;;;;17.85;2.15;;;22.20;55.60;;;;;;21069328;28;20044;-21
2021/07/29 07:47:23;;;;;;;7.88;2.05;;;22.10;55.70;;;;;;21067912;28;20023;-24
2021/07/29 07:57:23;;;;;;;5.80;1.63;;;22.10;55.80;;;;;;21066344;28;20069;-20
2021/07/29 08:07:24;;;;;;;9.30;2.90;;;22.10;55.70;;;;;;21065808;28;20473;-20
2021/07/29 08:17:24;;;;;;;7.70;2.30;;;22.10;54.50;;;;;;21079401;28;20039;-20
2021/07/29 08:27:25;;;;;;;7.45;1.95;;;22.20;54.70;;;;;;21082866;28;20050;-20
2021/07/29 08:37:26;;;;;;;5.80;1.60;;;22.10;54.70;;;;;;21082472;28;20024;-20
2021/07/29 08:47:31;;;;;;;4.75;1.35;;;22.20;54.60;;;;;;21080753;28;20020;-20
2021/07/29 08:57:33;;;;;;;9.45;1.73;;;22.20;53.70;;;;;;21080025;28;20104;-20
2021/07/29 09:07:34;;;;;;;12.57;2.72;;;22.20;53.20;;;;;;21080259;28;20032;-19
2021/07/29 09:17:44;;;;;;;3.70;1.40;;;22.20;53.10;;;;;;21081231;28;20038;-19
2021/07/29 09:27:50;;;;;;;6.78;1.65;;;22.20;52.70;;;;;;21079153;28;20454;-20
2021/07/29 09:37:51;;;;;;;9.65;2.15;;;22.20;51.50;;;;;;21079068;28;20633;-19
2021/07/29 09:47:56;;;;;;;6.28;2.60;;;22.10;51.90;;;;;;21078607;28;20028;-21
2021/07/29 09:57:58;;;;;;;5.00;1.27;;;22.10;50.80;;;;;;21078509;28;20039;-20
2021/07/29 10:08:03;;;;;;;5.13;1.67;;;22.10;51.40;;;;;;21076638;28;20097;-20
2021/07/29 10:18:06;;;;;;;3.72;1.27;;;22.10;51.20;;;;;;21075892;28;20142;-20
2021/07/29 10:28:20;;;;;;;5.93;1.73;;;22.10;51.60;;;;;;21074829;28;20028;-20
2021/07/29 10:38:39;;;;;;;4.55;1.27;;;22.10;51.60;;;;;;21074101;28;20039;-20
2021/07/29 10:48:47;;;;;;;5.53;1.10;;;22.10;51.70;;;;;;21075635;28;20042;-20
2021/07/29 10:58:50;;;;;;;3.77;1.40;;;22.10;50.90;;;;;;21073262;28;20020;-20
2021/07/29 11:08:51;;;;;;;3.60;1.50;;;22.10;51.00;;;;;;21073139;28;20027;-20
2021/07/29 11:18:59;;;;;;;4.75;0.73;;;22.10;50.30;;;;;;21077386;28;20031;-20
2021/07/29 11:29:10;;;;;;;4.43;1.65;;;22.10;49.50;;;;;;21071645;28;20028;-21
2021/07/29 11:39:10;;;;;;;3.97;1.02;;;22.10;49.60;;;;;;21069584;28;20391;-20
2021/07/29 11:49:11;;;;;;;2.97;1.10;;;22.10;48.60;;;;;;21067221;28;20052;-20
2021/07/29 11:59:12;;;;;;;7.07;1.52;;;22.10;49.80;;;;;;21068703;28;20039;-20
2021/07/29 12:09:13;;;;;;;4.63;1.75;;;22.10;49.20;;;;;;21068555;28;20415;-21
2021/07/29 12:19:14;;;;;;;4.57;1.48;;;22.10;49.60;;;;;;21067461;28;20036;-20
2021/07/29 12:29:42;;;;;;;7.80;1.88;;;22.20;50.00;;;;;;21063740;28;20450;-20
2021/07/29 12:39:48;;;;;;;4.13;1.50;;;22.20;50.30;;;;;;21065465;28;20083;-20
2021/07/29 12:49:49;;;;;;;6.65;1.20;;;22.20;50.60;;;;;;21067072;28;20048;-20
2021/07/29 12:59:50;;;;;;;10.33;1.60;;;22.30;50.90;;;;;;21072138;28;20085;-20
2021/07/29 13:09:53;;;;;;;5.53;1.67;;;22.30;51.10;;;;;;21080305;28;20392;-20
2021/07/29 13:19:56;;;;;;;5.30;1.20;;;22.30;51.30;;;;;;21056868;22;20036;-20
2021/07/29 13:29:57;;;;;;;2.78;1.60;;;22.30;51.50;;;;;;21012292;28;20056;-20
2021/07/29 13:39:57;;;;;;;2.83;1.15;;;22.40;51.70;;;;;;21003030;28;20017;-20
2021/07/29 13:49:58;;;;;;;3.55;0.90;;;22.40;52.00;;;;;;21006428;28;20025;-20
2021/07/29 13:59:58;;;;;;;3.55;1.85;;;22.40;52.20;;;;;;20993789;28;20036;-20
2021/07/29 14:09:59;;;;;;;3.87;1.17;;;22.40;52.20;;;;;;20993220;28;20042;-20
2021/07/29 14:30:07;;;;;;;3.70;1.35;;;22.40;52.40;;;;;;21004351;28;20404;-20
2021/07/29 14:40:08;;;;;;;2.30;1.25;;;22.40;52.70;;;;;;20990612;28;20511;-20
2021/07/29 14:50:09;;;;;;;2.78;1.08;;;22.40;52.90;;;;;;20988657;28;20028;-21
2021/07/29 16:12:24;;;;;;;10.90;1.60;;;22.50;54.40;;;;;;20984816;28;20040;-20
2021/07/29 16:22:25;;;;;;;18.08;4.03;;;22.50;53.90;;;;;;20993110;28;20113;-19
2021/07/29 16:32:25;;;;;;;17.88;2.97;;;22.60;54.90;;;;;;20973707;28;20095;-19
2021/07/29 16:42:27;;;;;;;14.30;3.05;;;22.60;55.30;;;;;;20999228;28;20021;-20
2021/07/29 16:52:27;;;;;;;16.77;3.17;;;22.60;55.60;;;;;;20997823;28;20492;-20
2021/07/29 17:02:29;;;;;;;20.73;4.25;;;22.70;55.80;;;;;;20997845;28;20029;-20
2021/07/29 17:12:32;;;;;;;13.35;3.30;;;22.70;56.30;;;;;;20994869;28;20035;-19
2021/07/29 17:22:33;;;;;;;13.00;3.25;;;22.80;56.30;;;;;;20997648;28;20033;-19
2021/07/29 17:32:34;;;;;;;8.27;2.72;;;22.90;56.20;;;;;;21011733;28;20099;-19
2021/07/29 17:42:34;;;;;;;16.92;3.83;;;23.10;55.00;;;;;;20996009;28;20028;-20
2021/07/29 17:52:35;;;;;;;15.25;3.00;;;23.10;54.80;;;;;;20995846;28;20039;-21
2021/07/29 18:02:35;;;;;;;7.75;2.42;;;23.00;54.90;;;;;;20993222;28;20572;-20
2021/07/29 18:12:36;;;;;;;10.38;2.25;;;23.00;55.00;;;;;;20993076;28;20028;-19
2021/07/29 18:22:38;;;;;;;13.27;3.20;;;23.00;55.50;;;;;;20990425;28;20035;-19
2021/07/29 18:32:38;;;;;;;7.78;2.50;;;23.00;55.40;;;;;;21020135;28;20032;-20
2021/07/29 18:42:39;;;;;;;8.48;2.70;;;22.90;55.80;;;;;;21016561;28;20412;-20
2021/07/29 18:52:39;;;;;;;5.10;2.10;;;22.90;55.90;;;;;;21016659;28;20116;-19
2021/07/29 19:02:40;;;;;;;14.85;2.75;;;22.90;56.60;;;;;;21014162;28;20028;-19
2021/07/29 19:12:41;;;;;;;15.57;3.05;;;22.70;56.60;;;;;;21019515;28;20089;-21
2021/07/29 19:22:41;;;;;;;22.42;4.03;;;22.80;58.00;;;;;;21027608;22;20190;-20
2021/07/29 19:32:42;;;;;;;17.02;3.03;;;22.90;57.90;;;;;;20986388;28;20039;-19
2021/07/29 19:42:43;;;;;;;16.55;3.10;;;22.70;58.10;;;;;;20971760;28;20040;-19
2021/07/29 19:52:43;;;;;;;12.32;2.85;;;22.70;58.20;;;;;;20985612;28;20515;-20
2021/07/29 20:02:44;;;;;;;16.60;3.00;;;22.70;59.50;;;;;;20981257;28;20537;-19
2021/07/29 20:12:45;;;;;;;16.00;2.55;;;22.70;60.20;;;;;;20983626;28;20024;-20
2021/07/29 20:22:46;;;;;;;6.80;2.78;;;22.70;60.80;;;;;;20983601;28;20039;-19
2021/07/29 20:32:46;;;;;;;13.45;2.53;;;22.70;61.70;;;;;;20983009;28;20032;-20
2021/07/29 20:42:47;;;;;;;10.02;3.40;;;22.70;61.90;;;;;;20979322;28;20508;-19
2021/07/29 20:52:49;;;;;;;9.40;2.83;;;22.70;62.30;;;;;;20981147;28;20045;-19
2021/07/29 21:02:50;;;;;;;9.73;2.70;;;22.70;62.20;;;;;;20980224;28;20060;-19
2021/07/29 21:12:51;;;;;;;4.75;2.40;;;22.60;60.40;;;;;;20977758;28;20518;-19
2021/07/29 21:22:55;;;;;;;5.93;2.25;;;22.60;60.20;;;;;;20986219;28;20094;-20
2021/07/29 21:32:57;;;;;;;8.70;2.95;;;22.50;60.60;;;;;;20990788;28;20077;-20
2021/07/29 21:42:59;;;;;;;11.88;3.45;;;22.50;60.90;;;;;;20991129;28;20036;-20
2021/07/29 21:53:01;;;;;;;14.48;3.13;;;22.40;60.50;;;;;;20990897;28;20029;-20
2021/07/29 22:03:02;;;;;;;8.35;2.40;;;22.40;59.60;;;;;;20991231;28;20024;-19
2021/07/29 22:13:03;;;;;;;5.65;1.98;;;22.30;57.90;;;;;;20990265;28;20028;-20
2021/07/29 22:23:03;;;;;;;9.57;2.88;;;22.20;56.80;;;;;;20990784;28;20028;-19
2021/07/29 22:33:04;;;;;;;4.40;1.63;;;22.20;56.50;;;;;;20987145;28;20043;-20
2021/07/29 22:43:05;;;;;;;6.40;2.47;;;22.20;56.00;;;;;;20989478;28;20048;-20
2021/07/29 22:53:05;;;;;;;5.03;1.80;;;22.10;55.80;;;;;;20984866;28;20071;-20
2021/07/29 23:03:06;;;;;;;6.25;1.92;;;22.10;55.90;;;;;;20988687;28;20036;-20
2021/07/29 23:13:06;;;;;;;2.78;1.20;;;22.10;55.30;;;;;;20987332;28;20089;-19
2021/07/29 23:33:13;;;;;;;6.30;2.38;;;22.00;54.40;;;;;;20986744;28;20166;-21
2021/07/29 23:43:15;;;;;;;6.70;1.80;;;22.00;54.20;;;;;;20990215;28;20025;-21
2021/07/29 23:53:18;;;;;;;5.43;1.83;;;22.00;54.50;;;;;;20991709;28;20471;-21
